createdAt,value
2017-10-14T00:00:39.249Z,15.38
2017-10-14T00:01:48.086Z,15.34
2017-10-14T00:02:56.931Z,15.34
2017-10-14T00:04:05.772Z,15.35
2017-10-14T00:05:14.611Z,15.39
2017-10-14T00:06:23.448Z,15.32
2017-10-14T00:07:32.294Z,15.34
2017-10-14T00:08:41.130Z,15.43
2017-10-14T00:09:49.974Z,15.32
2017-10-14T00:10:58.808Z,15.39
2017-10-14T00:12:07.644Z,15.36
2017-10-14T00:13:16.488Z,15.36
2017-10-14T00:14:25.341Z,15.39
2017-10-14T00:15:34.520Z,15.36
2017-10-14T00:16:43.362Z,15.43
2017-10-14T00:17:52.202Z,15.35
2017-10-14T00:19:01.379Z,15.32
2017-10-14T00:20:10.225Z,15.39
2017-10-14T00:21:19.063Z,15.43
2017-10-14T00:22:27.896Z,15.35
2017-10-14T00:23:36.739Z,15.39
2017-10-14T00:24:45.575Z,15.44
2017-10-14T00:25:54.418Z,15.41
2017-10-14T00:27:03.260Z,15.44
2017-10-14T00:28:12.440Z,15.34
2017-10-14T00:29:21.277Z,15.36
2017-10-14T00:30:30.116Z,15.43
2017-10-14T00:31:38.957Z,15.43
2017-10-14T00:32:47.796Z,15.44
2017-10-14T00:33:56.642Z,15.36
2017-10-14T00:35:05.478Z,15.43
2017-10-14T00:36:14.316Z,15.39
2017-10-14T00:37:23.156Z,15.39
2017-10-14T00:38:32.010Z,15.38
2017-10-14T00:39:40.840Z,15.41
2017-10-14T00:40:49.687Z,15.41
2017-10-14T00:41:58.524Z,15.36
2017-10-14T00:43:07.362Z,15.35
2017-10-14T00:44:16.196Z,15.34
2017-10-14T00:45:25.040Z,15.46
2017-10-14T00:46:33.900Z,15.35
2017-10-14T00:47:42.720Z,15.46
2017-10-14T00:48:51.564Z,15.35
2017-10-14T00:50:00.400Z,15.35
2017-10-14T00:51:09.244Z,15.49
2017-10-14T00:52:18.086Z,15.43
2017-10-14T00:53:26.926Z,15.49
2017-10-14T00:54:36.099Z,15.43
2017-10-14T00:55:44.940Z,15.41
2017-10-14T00:56:53.779Z,15.46
2017-10-14T00:58:02.621Z,15.43
2017-10-14T00:59:11.465Z,15.36
2017-10-14T01:00:20.308Z,15.49
2017-10-14T01:01:29.152Z,15.49
2017-10-14T01:02:37.998Z,15.39
2017-10-14T01:03:46.832Z,15.49
2017-10-14T01:04:55.672Z,15.47
2017-10-14T01:06:04.511Z,15.5
2017-10-14T01:07:13.349Z,15.49
2017-10-14T01:08:22.191Z,15.46
2017-10-14T01:09:31.034Z,15.43
2017-10-14T01:10:39.877Z,15.43
2017-10-14T01:11:48.713Z,15.49
2017-10-14T01:12:57.556Z,15.47
2017-10-14T01:14:06.393Z,15.44
2017-10-14T01:15:15.237Z,15.47
2017-10-14T01:16:24.081Z,15.41
2017-10-14T01:17:33.263Z,15.5
2017-10-14T01:18:42.098Z,15.44
2017-10-14T01:19:50.939Z,15.44
2017-10-14T01:20:59.788Z,15.49
2017-10-14T01:22:08.627Z,15.47
2017-10-14T01:23:17.477Z,15.46
2017-10-14T01:24:26.320Z,15.5
2017-10-14T01:25:35.159Z,15.46
2017-10-14T01:26:44.011Z,15.5
2017-10-14T01:27:53.187Z,15.5
2017-10-14T01:29:02.029Z,15.47
2017-10-14T01:30:10.872Z,15.51
2017-10-14T01:31:19.711Z,15.47
2017-10-14T01:32:28.549Z,15.47
2017-10-14T01:33:37.394Z,15.59
2017-10-14T01:34:46.239Z,15.6
2017-10-14T01:35:55.080Z,15.54
2017-10-14T01:37:03.922Z,15.49
2017-10-14T01:38:12.761Z,15.56
2017-10-14T01:39:21.607Z,15.56
2017-10-14T01:40:30.447Z,15.59
2017-10-14T01:41:39.287Z,15.51
2017-10-14T01:42:48.127Z,15.51
2017-10-14T01:43:56.964Z,15.59
2017-10-14T01:45:05.803Z,15.5
2017-10-14T01:46:14.644Z,15.64
2017-10-14T01:47:23.489Z,15.54
2017-10-14T01:48:32.325Z,15.59
2017-10-14T01:49:41.167Z,15.57
2017-10-14T01:50:50.010Z,15.57
2017-10-14T01:51:59.186Z,15.6
2017-10-14T01:53:08.028Z,15.53
2017-10-14T01:54:16.863Z,15.6
2017-10-14T01:55:26.042Z,15.68
2017-10-14T01:56:34.884Z,15.56
2017-10-14T01:57:43.733Z,15.62
2017-10-14T01:58:52.573Z,15.59
2017-10-14T02:00:01.416Z,15.54
2017-10-14T02:01:10.595Z,15.57
2017-10-14T02:02:19.425Z,15.68
2017-10-14T02:03:28.272Z,15.6
2017-10-14T02:04:37.114Z,15.6
2017-10-14T02:05:45.955Z,15.69
2017-10-14T02:06:54.791Z,15.57
2017-10-14T02:08:03.632Z,15.65
2017-10-14T02:09:12.476Z,15.68
2017-10-14T02:10:21.318Z,15.69
2017-10-14T02:11:30.159Z,15.65
2017-10-14T02:12:38.995Z,15.59
2017-10-14T02:13:47.839Z,15.65
2017-10-14T02:14:56.680Z,15.56
2017-10-14T02:16:05.523Z,15.67
2017-10-14T02:17:14.363Z,15.64
2017-10-14T02:18:23.207Z,15.72
2017-10-14T02:19:32.390Z,15.67
2017-10-14T02:20:41.228Z,15.68
2017-10-14T02:21:50.074Z,15.71
2017-10-14T02:22:59.250Z,15.67
2017-10-14T02:24:08.090Z,15.72
2017-10-14T02:25:16.930Z,15.67
2017-10-14T02:26:25.772Z,15.71
2017-10-14T02:27:34.950Z,15.72
2017-10-14T02:28:43.791Z,15.71
2017-10-14T02:29:52.628Z,15.71
2017-10-14T02:31:01.464Z,15.67
2017-10-14T02:32:10.316Z,15.68
2017-10-14T02:33:19.487Z,15.71
2017-10-14T02:34:28.333Z,15.72
2017-10-14T02:35:37.172Z,15.74
2017-10-14T02:36:46.011Z,15.74
2017-10-14T02:37:54.860Z,15.72
2017-10-14T02:39:03.695Z,15.75
2017-10-14T02:40:12.530Z,15.72
2017-10-14T02:41:21.376Z,15.71
2017-10-14T02:42:30.227Z,15.68
2017-10-14T02:43:39.395Z,15.75
2017-10-14T02:44:48.237Z,15.84
2017-10-14T02:45:57.075Z,15.87
2017-10-14T02:47:06.255Z,15.84
2017-10-14T02:48:15.091Z,15.8
2017-10-14T02:49:23.928Z,15.86
2017-10-14T02:50:32.771Z,15.86
2017-10-14T02:51:41.612Z,15.84
2017-10-14T02:52:50.456Z,15.84
2017-10-14T02:53:59.296Z,15.84
2017-10-14T02:55:08.136Z,15.9
2017-10-14T02:56:16.977Z,15.83
2017-10-14T02:57:25.815Z,15.87
2017-10-14T02:58:34.655Z,15.92
2017-10-14T02:59:43.498Z,15.89
2017-10-14T03:00:52.338Z,15.92
2017-10-14T03:02:01.172Z,15.86
2017-10-14T03:03:10.062Z,15.9
2017-10-14T03:04:18.908Z,15.89
2017-10-14T03:05:27.783Z,15.9
2017-10-14T03:06:36.914Z,15.87
2017-10-14T03:07:45.834Z,15.9
2017-10-14T03:08:55.088Z,15.9
2017-10-14T03:10:04.037Z,15.9
2017-10-14T03:11:12.875Z,15.86
2017-10-14T03:12:21.713Z,15.86
2017-10-14T03:13:31.068Z,15.87
2017-10-14T03:14:40.106Z,15.9
2017-10-14T03:15:49.740Z,15.89
2017-10-14T03:16:58.896Z,15.87
2017-10-14T03:18:07.866Z,15.93
2017-10-14T03:19:17.494Z,15.93
2017-10-14T03:20:26.673Z,15.9
2017-10-14T03:21:35.518Z,15.89
2017-10-14T03:22:44.348Z,15.93
2017-10-14T03:23:53.529Z,15.86
2017-10-14T03:25:02.366Z,15.89
2017-10-14T03:26:11.292Z,15.92
2017-10-14T03:27:20.129Z,15.89
2017-10-14T03:28:29.166Z,15.9
2017-10-14T03:29:38.113Z,15.94
2017-10-14T03:30:47.186Z,15.87
2017-10-14T03:31:56.030Z,15.97
2017-10-14T03:33:05.401Z,15.92
2017-10-14T03:34:14.240Z,15.94
2017-10-14T03:35:23.249Z,16
2017-10-14T03:36:32.134Z,16.02
2017-10-14T03:37:41.154Z,15.97
2017-10-14T03:38:50.478Z,16
2017-10-14T03:39:59.866Z,16.04
2017-10-14T03:41:08.778Z,15.97
2017-10-14T03:42:18.163Z,16.02
2017-10-14T03:43:27.061Z,15.94
2017-10-14T03:44:36.672Z,15.97
2017-10-14T03:45:45.525Z,15.97
2017-10-14T03:46:54.363Z,16
2017-10-14T03:48:03.232Z,16.02
2017-10-14T03:49:12.071Z,15.92
2017-10-14T03:50:21.306Z,15.9
2017-10-14T03:51:30.143Z,15.94
2017-10-14T03:52:38.979Z,16.02
2017-10-14T03:53:47.826Z,15.97
2017-10-14T03:54:56.668Z,16.01
2017-10-14T03:56:05.508Z,16
2017-10-14T03:57:14.352Z,16.04
2017-10-14T03:58:23.191Z,16.05
2017-10-14T03:59:32.030Z,16.02
2017-10-14T04:00:40.874Z,16.08
2017-10-14T04:01:49.714Z,16.05
2017-10-14T04:02:58.893Z,16.04
2017-10-14T04:04:07.729Z,16.05
2017-10-14T04:05:16.569Z,15.92
2017-10-14T04:06:25.410Z,16.01
2017-10-14T04:07:34.249Z,15.97
2017-10-14T04:08:43.088Z,15.96
2017-10-14T04:09:51.926Z,16
2017-10-14T04:11:00.764Z,16.01
2017-10-14T04:12:09.605Z,16.05
2017-10-14T04:13:18.784Z,16.01
2017-10-14T04:14:27.622Z,16.01
2017-10-14T04:15:36.462Z,15.96
2017-10-14T04:16:45.644Z,15.97
2017-10-14T04:17:54.486Z,16.07
2017-10-14T04:19:03.328Z,16.07
2017-10-14T04:20:12.163Z,16.04
2017-10-14T04:21:21.001Z,16.09
2017-10-14T04:22:29.848Z,16.02
2017-10-14T04:23:38.692Z,16.11
2017-10-14T04:24:47.524Z,16.08
2017-10-14T04:25:56.364Z,16.15
2017-10-14T04:27:05.208Z,16.12
2017-10-14T04:28:14.048Z,16.11
2017-10-14T04:29:22.894Z,16.05
2017-10-14T04:30:31.729Z,16.05
2017-10-14T04:31:40.569Z,16.01
2017-10-14T04:32:49.754Z,16
2017-10-14T04:33:58.591Z,16.04
2017-10-14T04:35:07.433Z,16.04
2017-10-14T04:36:16.272Z,16.08
2017-10-14T04:37:25.115Z,16.07
2017-10-14T04:38:34.288Z,16.05
2017-10-14T04:39:43.133Z,16.07
2017-10-14T04:40:51.974Z,16.05
2017-10-14T04:42:00.820Z,16.08
2017-10-14T04:43:09.664Z,16.17
2017-10-14T04:44:18.500Z,16.17
2017-10-14T04:45:27.339Z,16.11
2017-10-14T04:46:36.177Z,16.2
2017-10-14T04:47:45.019Z,16.11
2017-10-14T04:48:53.858Z,16.07
2017-10-14T04:50:02.702Z,16.08
2017-10-14T04:51:11.542Z,16.17
2017-10-14T04:52:20.379Z,16.15
2017-10-14T04:53:29.227Z,16.15
2017-10-14T04:54:38.059Z,16.2
2017-10-14T04:55:46.899Z,16.14
2017-10-14T04:56:55.740Z,16.09
2017-10-14T04:58:04.580Z,16.01
2017-10-14T04:59:13.420Z,16.05
2017-10-14T05:00:22.264Z,16.14
2017-10-14T05:01:31.113Z,16.11
2017-10-14T05:02:39.945Z,16.07
2017-10-14T05:03:48.791Z,16.11
2017-10-14T05:04:57.628Z,16.07
2017-10-14T05:06:06.469Z,16.17
2017-10-14T05:07:15.308Z,16.09
2017-10-14T05:08:24.155Z,16.07
2017-10-14T05:09:33.328Z,16.07
2017-10-14T05:10:42.169Z,16.17
2017-10-14T05:11:51.007Z,16.08
2017-10-14T05:12:59.850Z,16.04
2017-10-14T05:14:08.692Z,16.2
2017-10-14T05:15:17.879Z,16.15
2017-10-14T05:16:26.706Z,16.12
2017-10-14T05:17:35.891Z,16.11
2017-10-14T05:18:44.729Z,16.15
2017-10-14T05:19:53.572Z,16.17
2017-10-14T05:21:02.412Z,16.15
2017-10-14T05:22:11.256Z,16.14
2017-10-14T05:23:20.090Z,16.14
2017-10-14T05:24:28.932Z,16.14
2017-10-14T05:25:37.772Z,16.09
2017-10-14T05:26:46.612Z,16.23
2017-10-14T05:27:55.463Z,16.24
2017-10-14T05:29:04.294Z,16.2
2017-10-14T05:30:13.473Z,16.2
2017-10-14T05:31:22.319Z,16.2
2017-10-14T05:32:31.157Z,16.21
2017-10-14T05:33:39.998Z,16.17
2017-10-14T05:34:48.843Z,16.17
2017-10-14T05:35:57.676Z,16.17
2017-10-14T05:37:06.518Z,16.17
2017-10-14T05:38:15.364Z,16.2
2017-10-14T05:39:24.203Z,16.17
2017-10-14T05:40:33.051Z,16.17
2017-10-14T05:41:41.881Z,16.17
2017-10-14T05:42:51.067Z,16.2
2017-10-14T05:44:00.248Z,16.2
2017-10-14T05:45:09.425Z,16.2
2017-10-14T05:46:18.261Z,16.17
2017-10-14T05:47:27.107Z,16.23
2017-10-14T05:48:35.945Z,16.23
2017-10-14T05:49:44.784Z,16.24
2017-10-14T05:50:53.625Z,16.27
2017-10-14T05:52:02.467Z,16.31
2017-10-14T05:53:11.303Z,16.3
2017-10-14T05:54:20.146Z,16.31
2017-10-14T05:55:28.984Z,16.28
2017-10-14T05:56:37.823Z,16.33
2017-10-14T05:57:46.666Z,16.33
2017-10-14T05:58:55.505Z,16.33
2017-10-14T06:00:04.353Z,16.3
2017-10-14T06:01:13.190Z,16.25
2017-10-14T06:02:22.046Z,16.31
2017-10-14T06:03:30.874Z,16.31
2017-10-14T06:04:39.714Z,16.35
2017-10-14T06:05:48.553Z,16.34
2017-10-14T06:06:57.397Z,16.34
2017-10-14T06:08:06.237Z,16.38
2017-10-14T06:09:15.078Z,16.31
2017-10-14T06:10:23.917Z,16.38
2017-10-14T06:11:32.763Z,16.35
2017-10-14T06:12:41.605Z,16.43
2017-10-14T06:13:50.788Z,16.35
2017-10-14T06:14:59.624Z,16.41
2017-10-14T06:16:08.470Z,16.41
2017-10-14T06:17:17.311Z,16.41
2017-10-14T06:18:26.156Z,16.42
2017-10-14T06:19:34.997Z,16.38
2017-10-14T06:20:43.842Z,16.39
2017-10-14T06:21:53.013Z,16.38
2017-10-14T06:23:01.857Z,16.42
2017-10-14T06:24:10.694Z,16.45
2017-10-14T06:25:19.539Z,16.42
2017-10-14T06:26:28.384Z,16.46
2017-10-14T06:27:37.219Z,16.41
2017-10-14T06:28:46.065Z,16.48
2017-10-14T06:29:54.899Z,16.45
2017-10-14T06:31:03.740Z,16.49
2017-10-14T06:32:12.580Z,16.45
2017-10-14T06:33:21.432Z,16.46
2017-10-14T06:34:30.607Z,16.52
2017-10-14T06:35:39.631Z,16.49
2017-10-14T06:36:48.547Z,16.56
2017-10-14T06:37:57.389Z,16.43
2017-10-14T06:39:06.231Z,16.52
2017-10-14T06:40:15.072Z,16.57
2017-10-14T06:41:23.913Z,16.53
2017-10-14T06:42:32.820Z,16.56
2017-10-14T06:43:41.661Z,16.49
2017-10-14T06:44:50.851Z,16.52
2017-10-14T06:45:59.690Z,16.5
2017-10-14T06:47:08.581Z,16.6
2017-10-14T06:48:17.415Z,16.63
2017-10-14T06:49:26.259Z,16.71
2017-10-14T06:50:35.107Z,16.63
2017-10-14T06:51:43.952Z,16.71
2017-10-14T06:52:52.790Z,16.71
2017-10-14T06:54:01.645Z,16.71
2017-10-14T06:55:10.474Z,16.7
2017-10-14T06:56:19.310Z,16.7
2017-10-14T06:57:28.155Z,16.68
2017-10-14T06:58:36.999Z,16.7
2017-10-14T06:59:45.837Z,16.7
2017-10-14T07:00:54.678Z,16.71
2017-10-14T07:02:03.521Z,16.71
2017-10-14T07:03:12.363Z,16.71
2017-10-14T07:04:21.205Z,16.78
2017-10-14T07:05:30.043Z,16.78
2017-10-14T07:06:38.881Z,16.79
2017-10-14T07:07:47.728Z,16.79
2017-10-14T07:08:56.568Z,16.73
2017-10-14T07:10:05.410Z,16.81
2017-10-14T07:11:14.588Z,16.76
2017-10-14T07:12:23.431Z,16.81
2017-10-14T07:13:32.273Z,16.85
2017-10-14T07:14:41.113Z,16.88
2017-10-14T07:15:49.954Z,16.85
2017-10-14T07:16:58.792Z,16.86
2017-10-14T07:18:07.973Z,16.88
2017-10-14T07:19:16.815Z,16.85
2017-10-14T07:20:25.656Z,16.88
2017-10-14T07:21:34.836Z,16.93
2017-10-14T07:22:43.679Z,16.96
2017-10-14T07:23:52.521Z,16.93
2017-10-14T07:25:01.361Z,16.94
2017-10-14T07:26:10.202Z,17
2017-10-14T07:27:19.045Z,17
2017-10-14T07:28:27.892Z,17.01
2017-10-14T07:29:36.731Z,16.91
2017-10-14T07:30:45.578Z,16.94
2017-10-14T07:31:54.416Z,17.08
2017-10-14T07:33:03.257Z,16.94
2017-10-14T07:34:12.098Z,17.07
2017-10-14T07:35:21.283Z,17.12
2017-10-14T07:36:30.124Z,17.12
2017-10-14T07:37:38.965Z,17.08
2017-10-14T07:38:47.812Z,17.11
2017-10-14T07:39:56.992Z,17.06
2017-10-14T07:41:05.827Z,17.07
2017-10-14T07:42:14.674Z,17.07
2017-10-14T07:43:23.509Z,17.06
2017-10-14T07:44:32.355Z,17.14
2017-10-14T07:45:41.193Z,17.14
2017-10-14T07:46:50.036Z,17.16
2017-10-14T07:47:58.888Z,17.08
2017-10-14T07:49:07.728Z,17.14
2017-10-14T07:50:16.564Z,17.22
2017-10-14T07:51:25.401Z,17.18
2017-10-14T07:52:34.262Z,17.19
2017-10-14T07:53:43.085Z,17.31
2017-10-14T07:54:51.930Z,17.25
2017-10-14T07:56:00.771Z,17.3
2017-10-14T07:57:09.616Z,17.33
2017-10-14T07:58:18.457Z,17.41
2017-10-14T07:59:27.301Z,17.38
2017-10-14T08:00:36.138Z,17.44
2017-10-14T08:01:44.981Z,17.49
2017-10-14T08:02:53.827Z,17.52
2017-10-14T08:04:02.669Z,17.49
2017-10-14T08:05:11.853Z,17.51
2017-10-14T08:06:20.693Z,17.48
2017-10-14T08:07:29.535Z,17.56
2017-10-14T08:08:38.717Z,17.66
2017-10-14T08:09:47.558Z,17.64
2017-10-14T08:10:56.399Z,17.63
2017-10-14T08:12:05.233Z,17.68
2017-10-14T08:13:14.076Z,17.72
2017-10-14T08:14:22.915Z,17.75
2017-10-14T08:15:31.759Z,17.77
2017-10-14T08:16:40.608Z,17.75
2017-10-14T08:17:49.782Z,17.78
2017-10-14T08:18:58.620Z,17.78
2017-10-14T08:20:07.460Z,17.84
2017-10-14T08:21:16.303Z,17.87
2017-10-14T08:22:25.149Z,17.82
2017-10-14T08:23:33.993Z,17.9
2017-10-14T08:24:42.838Z,17.84
2017-10-14T08:25:51.680Z,17.97
2017-10-14T08:27:00.522Z,17.99
2017-10-14T08:28:09.364Z,17.96
2017-10-14T08:29:18.205Z,17.97
2017-10-14T08:30:27.053Z,17.93
2017-10-14T08:31:35.891Z,18
2017-10-14T08:32:44.731Z,17.96
2017-10-14T08:33:53.576Z,17.95
2017-10-14T08:35:02.421Z,17.97
2017-10-14T08:36:11.264Z,17.95
2017-10-14T08:37:20.102Z,18.03
2017-10-14T08:38:28.948Z,18
2017-10-14T08:39:37.789Z,17.99
2017-10-14T08:40:46.629Z,18.02
2017-10-14T08:41:55.475Z,18.03
2017-10-14T08:43:04.314Z,18.08
2017-10-14T08:44:13.162Z,17.95
2017-10-14T08:45:21.999Z,17.95
2017-10-14T08:46:30.838Z,18.02
2017-10-14T08:47:39.684Z,17.95
2017-10-14T08:48:48.528Z,17.82
2017-10-14T08:49:57.370Z,17.82
2017-10-14T08:51:06.213Z,17.84
2017-10-14T08:52:15.057Z,17.82
2017-10-14T08:53:23.897Z,17.87
2017-10-14T08:54:32.745Z,17.86
2017-10-14T08:55:41.585Z,17.89
2017-10-14T08:56:50.426Z,17.86
2017-10-14T08:57:59.272Z,17.9
2017-10-14T08:59:08.115Z,17.87
2017-10-14T09:00:16.964Z,17.87
2017-10-14T09:01:25.803Z,17.9
2017-10-14T09:02:34.667Z,17.82
2017-10-14T09:03:43.509Z,17.86
2017-10-14T09:04:52.352Z,17.84
2017-10-14T09:06:01.194Z,17.92
2017-10-14T09:07:10.050Z,17.84
2017-10-14T09:08:18.896Z,17.84
2017-10-14T09:09:27.739Z,17.9
2017-10-14T09:10:36.581Z,17.86
2017-10-14T09:11:45.430Z,17.84
2017-10-14T09:12:54.270Z,17.89
2017-10-14T09:14:03.112Z,17.87
2017-10-14T09:15:11.959Z,17.86
2017-10-14T09:16:21.135Z,17.86
2017-10-14T09:17:29.976Z,17.81
2017-10-14T09:18:38.826Z,17.86
2017-10-14T09:19:48.243Z,17.89
2017-10-14T09:20:57.820Z,17.92
2017-10-14T09:22:07.044Z,17.93
2017-10-14T09:23:15.892Z,17.96
2017-10-14T09:24:24.729Z,17.93
2017-10-14T09:25:33.572Z,17.92
2017-10-14T09:26:42.535Z,17.93
2017-10-14T09:27:51.378Z,17.93
2017-10-14T09:29:00.223Z,17.97
2017-10-14T09:30:09.398Z,17.92
2017-10-14T09:31:18.524Z,17.92
2017-10-14T09:32:27.855Z,17.92
2017-10-14T09:33:37.511Z,17.96
2017-10-14T09:34:46.649Z,17.95
2017-10-14T09:35:55.518Z,17.99
2017-10-14T09:37:04.364Z,17.95
2017-10-14T09:38:13.207Z,18
2017-10-14T09:39:22.053Z,17.96
2017-10-14T09:40:30.893Z,17.93
2017-10-14T09:41:39.747Z,17.89
2017-10-14T09:42:48.585Z,17.86
2017-10-14T09:43:57.432Z,17.82
2017-10-14T09:45:06.737Z,17.84
2017-10-14T09:46:15.667Z,17.87
2017-10-14T09:47:24.592Z,17.93
2017-10-14T09:48:33.586Z,17.96
2017-10-14T09:49:43.163Z,17.97
2017-10-14T09:50:52.150Z,17.99
2017-10-14T09:52:01.078Z,18.11
2017-10-14T09:53:10.018Z,18.1
2017-10-14T09:54:18.932Z,18.11
2017-10-14T09:55:28.289Z,18.11
2017-10-14T09:56:37.210Z,18.11
2017-10-14T09:57:46.057Z,18.14
2017-10-14T09:58:54.904Z,18.12
2017-10-14T10:00:03.741Z,18.1
2017-10-14T10:01:12.582Z,18.21
2017-10-14T10:02:21.430Z,18.2
2017-10-14T10:03:30.274Z,18.18
2017-10-14T10:04:39.115Z,18.26
2017-10-14T10:05:47.957Z,18.23
2017-10-14T10:06:56.798Z,18.14
2017-10-14T10:08:05.643Z,18.17
2017-10-14T10:09:14.488Z,18.18
2017-10-14T10:10:23.667Z,18.14
2017-10-14T10:11:32.514Z,18.17
2017-10-14T10:12:41.354Z,18.14
2017-10-14T10:13:50.199Z,18.21
2017-10-14T10:14:59.042Z,18.15
2017-10-14T10:16:07.889Z,18.14
2017-10-14T10:17:16.731Z,18.11
2017-10-14T10:18:25.570Z,18.12
2017-10-14T10:19:34.418Z,18.08
2017-10-14T10:20:43.261Z,18.15
2017-10-14T10:21:52.123Z,18.23
2017-10-14T10:23:00.951Z,18.25
2017-10-14T10:24:09.801Z,18.26
2017-10-14T10:25:18.629Z,18.1
2017-10-14T10:26:27.475Z,18.15
2017-10-14T10:27:36.316Z,18.12
2017-10-14T10:28:45.165Z,18.1
2017-10-14T10:29:54.010Z,18.18
2017-10-14T10:31:02.849Z,18.17
2017-10-14T10:32:11.690Z,18.14
2017-10-14T10:33:20.532Z,18.15
2017-10-14T10:34:29.377Z,18.11
2017-10-14T10:35:38.226Z,18.17
2017-10-14T10:36:47.068Z,18.15
2017-10-14T10:37:55.906Z,18.11
2017-10-14T10:39:04.756Z,18.17
2017-10-14T10:40:13.597Z,18.14
2017-10-14T10:41:22.460Z,18.14
2017-10-14T10:42:31.298Z,18.15
2017-10-14T10:43:40.138Z,18.14
2017-10-14T10:44:48.986Z,18.12
2017-10-14T10:45:57.835Z,18.15
2017-10-14T10:47:06.682Z,18.15
2017-10-14T10:48:15.539Z,18.07
2017-10-14T10:49:24.431Z,18.15
2017-10-14T10:50:33.292Z,18.12
2017-10-14T10:51:42.167Z,18.18
2017-10-14T10:52:51.032Z,18.25
2017-10-14T10:53:59.891Z,18.12
2017-10-14T10:55:08.763Z,18.15
2017-10-14T10:56:17.622Z,18.2
2017-10-14T10:57:26.523Z,18.18
2017-10-14T10:58:35.394Z,18.23
2017-10-14T10:59:44.255Z,18.18
2017-10-14T11:00:53.119Z,18.17
2017-10-14T11:02:01.983Z,18.15
2017-10-14T11:03:10.851Z,18.17
2017-10-14T11:04:19.726Z,18.26
2017-10-14T11:05:28.597Z,18.2
2017-10-14T11:06:37.453Z,18.27
2017-10-14T11:07:46.326Z,18.27
2017-10-14T11:08:55.181Z,18.23
2017-10-14T11:10:04.048Z,18.21
2017-10-14T11:11:12.908Z,18.23
2017-10-14T11:12:21.779Z,18.21
2017-10-14T11:13:30.648Z,18.27
2017-10-14T11:14:39.512Z,18.25
2017-10-14T11:15:48.356Z,18.3
2017-10-14T11:16:57.196Z,18.29
2017-10-14T11:18:06.056Z,18.21
2017-10-14T11:19:14.888Z,18.29
2017-10-14T11:20:24.067Z,18.21
2017-10-14T11:21:32.959Z,18.25
2017-10-14T11:22:41.945Z,18.29
2017-10-14T11:23:50.791Z,18.18
2017-10-14T11:24:59.635Z,18.32
2017-10-14T11:26:08.480Z,18.29
2017-10-14T11:27:17.324Z,18.25
2017-10-14T11:28:26.165Z,18.32
2017-10-14T11:29:35.005Z,18.29
2017-10-14T11:30:43.857Z,18.3
2017-10-14T11:31:52.696Z,18.27
2017-10-14T11:33:01.546Z,18.27
2017-10-14T11:34:10.726Z,18.29
2017-10-14T11:35:19.568Z,18.27
2017-10-14T11:36:28.412Z,18.27
2017-10-14T11:37:37.252Z,18.23
2017-10-14T11:38:46.093Z,18.23
2017-10-14T11:39:54.940Z,18.29
2017-10-14T11:41:03.786Z,18.21
2017-10-14T11:42:12.632Z,18.21
2017-10-14T11:43:21.473Z,18.27
2017-10-14T11:44:30.319Z,18.36
2017-10-14T11:45:39.157Z,18.33
2017-10-14T11:46:48.005Z,18.39
2017-10-14T11:47:56.846Z,18.27
2017-10-14T11:49:05.693Z,18.42
2017-10-14T11:50:14.532Z,18.36
2017-10-14T11:51:23.718Z,18.39
2017-10-14T11:52:32.561Z,18.39
2017-10-14T11:53:41.741Z,18.36
2017-10-14T11:54:50.582Z,18.37
2017-10-14T11:55:59.423Z,18.37
2017-10-14T11:57:08.267Z,18.35
2017-10-14T11:58:17.112Z,18.39
2017-10-14T11:59:25.953Z,18.39
2017-10-14T12:00:34.829Z,18.39
2017-10-14T12:01:43.670Z,18.36
2017-10-14T12:02:52.855Z,18.32
2017-10-14T12:04:01.692Z,18.45
2017-10-14T12:05:10.537Z,18.39
2017-10-14T12:06:19.388Z,18.39
2017-10-14T12:07:28.228Z,18.42
2017-10-14T12:08:37.069Z,18.41
2017-10-14T12:09:45.920Z,18.41
2017-10-14T12:10:54.760Z,18.42
2017-10-14T12:12:03.611Z,18.41
2017-10-14T12:13:12.456Z,18.47
2017-10-14T12:14:21.687Z,18.51
2017-10-14T12:15:30.631Z,18.39
2017-10-14T12:16:39.883Z,18.47
2017-10-14T12:17:48.836Z,18.54
2017-10-14T12:18:57.784Z,18.55
2017-10-14T12:20:06.751Z,18.54
2017-10-14T12:21:15.712Z,18.6
2017-10-14T12:22:24.655Z,18.63
2017-10-14T12:23:33.780Z,18.66
2017-10-14T12:24:42.878Z,18.69
2017-10-14T12:25:52.022Z,18.66
2017-10-14T12:27:00.993Z,18.65
2017-10-14T12:28:10.074Z,18.69
2017-10-14T12:29:18.960Z,18.63
2017-10-14T12:30:28.115Z,18.7
2017-10-14T12:31:37.153Z,18.67
2017-10-14T12:32:46.232Z,18.69
2017-10-14T12:33:55.835Z,18.69
2017-10-14T12:35:04.747Z,18.67
2017-10-14T12:36:13.633Z,18.75
2017-10-14T12:37:22.494Z,18.67
2017-10-14T12:38:31.438Z,18.78
2017-10-14T12:39:40.368Z,18.75
2017-10-14T12:40:49.288Z,18.8
2017-10-14T12:41:58.218Z,18.75
2017-10-14T12:43:07.167Z,18.78
2017-10-14T12:44:16.289Z,18.69
2017-10-14T12:45:25.937Z,18.73
2017-10-14T12:46:34.889Z,18.7
2017-10-14T12:47:43.865Z,18.7
2017-10-14T12:48:52.913Z,18.69
2017-10-14T12:50:01.866Z,18.78
2017-10-14T12:51:11.026Z,18.8
2017-10-14T12:52:19.878Z,18.78
2017-10-14T12:53:28.713Z,18.82
2017-10-14T12:54:37.564Z,18.82
2017-10-14T12:55:46.410Z,18.8
2017-10-14T12:56:55.250Z,18.81
2017-10-14T12:58:04.099Z,18.8
2017-10-14T12:59:12.940Z,18.78
2017-10-14T13:00:21.783Z,18.87
2017-10-14T13:01:30.623Z,18.87
2017-10-14T13:02:39.470Z,18.85
2017-10-14T13:03:48.313Z,18.76
2017-10-14T13:04:57.157Z,18.87
2017-10-14T13:06:06.004Z,18.76
2017-10-14T13:07:14.844Z,18.75
2017-10-14T13:08:23.691Z,18.8
2017-10-14T13:09:32.536Z,18.81
2017-10-14T13:10:41.707Z,18.88
2017-10-14T13:11:50.553Z,18.87
2017-10-14T13:12:59.396Z,18.84
2017-10-14T13:14:08.245Z,18.76
2017-10-14T13:15:17.085Z,18.85
2017-10-14T13:16:25.945Z,18.78
2017-10-14T13:17:34.795Z,18.82
2017-10-14T13:18:43.650Z,18.76
2017-10-14T13:19:52.494Z,18.76
2017-10-14T13:21:01.340Z,18.84
2017-10-14T13:22:10.188Z,18.8
2017-10-14T13:23:19.043Z,18.8
2017-10-14T13:24:27.876Z,18.78
2017-10-14T13:25:36.719Z,18.8
2017-10-14T13:26:45.565Z,18.78
2017-10-14T13:27:54.408Z,18.8
2017-10-14T13:29:03.256Z,18.78
2017-10-14T13:30:12.102Z,18.78
2017-10-14T13:31:21.486Z,18.75
2017-10-14T13:32:30.481Z,18.76
2017-10-14T13:33:39.437Z,18.72
2017-10-14T13:34:48.356Z,18.75
2017-10-14T13:35:57.452Z,18.78
2017-10-14T13:37:06.389Z,18.75
2017-10-14T13:38:15.313Z,18.69
2017-10-14T13:39:24.244Z,18.69
2017-10-14T13:40:33.240Z,18.69
2017-10-14T13:41:42.189Z,18.69
2017-10-14T13:42:51.163Z,18.66
2017-10-14T13:44:00.132Z,18.76
2017-10-14T13:45:09.078Z,18.8
2017-10-14T13:46:18.065Z,18.73
2017-10-14T13:47:26.935Z,18.78
2017-10-14T13:48:35.856Z,18.76
2017-10-14T13:49:44.794Z,18.78
2017-10-14T13:50:54.092Z,18.73
2017-10-14T13:52:03.078Z,18.78
2017-10-14T13:53:12.110Z,18.76
2017-10-14T13:54:21.216Z,18.87
2017-10-14T13:55:30.211Z,18.84
2017-10-14T13:56:39.318Z,18.87
2017-10-14T13:57:48.428Z,18.84
2017-10-14T13:58:57.499Z,18.84
2017-10-14T14:00:06.517Z,18.81
2017-10-14T14:01:15.825Z,18.8
2017-10-14T14:02:24.830Z,18.78
2017-10-14T14:03:33.809Z,18.82
2017-10-14T14:04:42.818Z,18.8
2017-10-14T14:05:51.777Z,18.81
2017-10-14T14:07:00.750Z,18.84
2017-10-14T14:08:09.801Z,18.81
2017-10-14T14:09:18.769Z,18.84
2017-10-14T14:10:27.757Z,18.84
2017-10-14T14:11:36.749Z,18.78
2017-10-14T14:12:45.705Z,18.8
2017-10-14T14:13:54.703Z,18.78
2017-10-14T14:15:03.629Z,18.91
2017-10-14T14:16:12.635Z,18.82
2017-10-14T14:17:21.608Z,18.8
2017-10-14T14:18:30.550Z,18.73
2017-10-14T14:19:39.716Z,18.82
2017-10-14T14:20:48.687Z,18.81
2017-10-14T14:21:57.591Z,18.81
2017-10-14T14:23:06.597Z,18.78
2017-10-14T14:24:15.650Z,18.78
2017-10-14T14:25:24.628Z,18.67
2017-10-14T14:26:33.587Z,18.81
2017-10-14T14:27:42.531Z,18.73
2017-10-14T14:28:51.529Z,18.82
2017-10-14T14:30:00.509Z,18.78
2017-10-14T14:31:09.446Z,18.84
2017-10-14T14:32:18.403Z,18.75
2017-10-14T14:33:27.352Z,18.78
2017-10-14T14:34:36.403Z,18.82
2017-10-14T14:35:45.334Z,18.85
2017-10-14T14:36:54.267Z,18.84
2017-10-14T14:38:03.631Z,18.78
2017-10-14T14:39:12.555Z,18.78
2017-10-14T14:40:21.634Z,18.76
2017-10-14T14:41:30.914Z,18.9
2017-10-14T14:42:39.760Z,18.84
2017-10-14T14:43:48.603Z,18.9
2017-10-14T14:44:57.450Z,18.85
2017-10-14T14:46:06.297Z,18.87
2017-10-14T14:47:15.149Z,18.88
2017-10-14T14:48:23.988Z,18.92
2017-10-14T14:49:32.838Z,18.94
2017-10-14T14:50:41.685Z,18.91
2017-10-14T14:51:50.578Z,18.94